createdAt,value
2023-03-29T00:00:08.380Z,3546.00
2023-03-29T00:01:08.360Z,3548.00
2023-03-29T00:02:08.399Z,3521.00
2023-03-29T00:03:08.588Z,3531.00
2023-03-29T00:04:08.417Z,3517.00
2023-03-29T00:05:08.337Z,3513.00
2023-03-29T00:06:08.338Z,3515.00
2023-03-29T00:07:08.345Z,3514.00
2023-03-29T00:08:08.324Z,3517.00
2023-03-29T00:09:08.314Z,3515.00
2023-03-29T00:10:08.316Z,3502.00
2023-03-29T00:11:08.310Z,3489.00
2023-03-29T00:12:08.305Z,3488.00
2023-03-29T00:13:08.289Z,3473.00
2023-03-29T00:14:08.283Z,3435.00
2023-03-29T00:15:08.306Z,3458.00
2023-03-29T00:16:08.285Z,3453.00
2023-03-29T00:17:08.329Z,3452.00
2023-03-29T00:18:08.278Z,3475.00
2023-03-29T00:19:08.247Z,3454.00
2023-03-29T00:20:08.259Z,3465.00
2023-03-29T00:21:08.256Z,3423.00
2023-03-29T00:22:08.238Z,3448.00
2023-03-29T00:23:08.231Z,3458.00
2023-03-29T00:24:08.216Z,3464.00
2023-03-29T00:25:08.276Z,3461.00
2023-03-29T00:26:08.523Z,3443.00
2023-03-29T00:27:08.217Z,3434.00
2023-03-29T00:28:08.211Z,3412.00
2023-03-29T00:29:08.204Z,3437.00
2023-03-29T00:30:08.197Z,3443.00
2023-03-29T00:31:08.256Z,3433.00
2023-03-29T00:32:08.187Z,3383.00
2023-03-29T00:33:08.233Z,3421.00
2023-03-29T00:34:08.153Z,3441.00
2023-03-29T00:35:08.149Z,3379.00
2023-03-29T00:36:08.180Z,3403.00
2023-03-29T00:37:08.159Z,3395.00
2023-03-29T00:38:08.118Z,3388.00
2023-03-29T00:39:08.115Z,3430.00
2023-03-29T00:40:08.112Z,3392.00
2023-03-29T00:41:08.105Z,3379.00
2023-03-29T00:42:08.118Z,3405.00
2023-03-29T00:43:08.133Z,3388.00
2023-03-29T00:44:08.099Z,3386.00
2023-03-29T00:45:08.100Z,3357.00
2023-03-29T00:46:08.152Z,3399.00
2023-03-29T00:47:08.077Z,3392.00
2023-03-29T00:48:08.138Z,3379.00
2023-03-29T00:49:08.076Z,3358.00
2023-03-29T00:50:08.050Z,3357.00
2023-03-29T00:51:09.877Z,3345.00
2023-03-29T00:52:08.023Z,3339.00
2023-03-29T00:53:08.041Z,3342.00
2023-03-29T00:54:08.027Z,3342.00
2023-03-29T00:55:08.021Z,3306.00
2023-03-29T00:56:07.998Z,3335.00
2023-03-29T00:57:08.013Z,3347.00
2023-03-29T00:58:07.998Z,3343.00
2023-03-29T00:59:08.001Z,3351.00
2023-03-29T01:00:07.993Z,3342.00
2023-03-29T01:01:07.985Z,3347.00
2023-03-29T01:02:08.014Z,3299.00
2023-03-29T01:03:08.104Z,3326.00
2023-03-29T01:04:08.012Z,3337.00
2023-03-29T01:05:07.949Z,3274.00
2023-03-29T01:06:07.969Z,3310.00
2023-03-29T01:07:08.013Z,3286.00
2023-03-29T01:08:07.939Z,3296.00
2023-03-29T01:09:07.945Z,3283.00
2023-03-29T01:10:07.932Z,3282.00
2023-03-29T01:11:07.925Z,3279.00
2023-03-29T01:12:07.926Z,3289.00
2023-03-29T01:13:07.913Z,3284.00
2023-03-29T01:14:07.898Z,3234.00
2023-03-29T01:15:07.905Z,3226.00
2023-03-29T01:16:07.939Z,3244.00
2023-03-29T01:17:07.888Z,3197.00
2023-03-29T01:18:07.904Z,3237.00
2023-03-29T01:19:07.877Z,3243.00
2023-03-29T01:20:07.858Z,3260.00
2023-03-29T01:21:07.855Z,3253.00
2023-03-29T01:22:07.846Z,3263.00
2023-03-29T01:23:07.834Z,3237.00
2023-03-29T01:24:07.849Z,3227.00
2023-03-29T01:25:07.852Z,3251.00
2023-03-29T01:26:07.832Z,3233.00
2023-03-29T01:27:07.834Z,3187.00
2023-03-29T01:28:07.834Z,3228.00
2023-03-29T01:29:07.839Z,3184.00
2023-03-29T01:30:07.829Z,3194.00
2023-03-29T01:31:07.834Z,3185.00
2023-03-29T01:32:07.926Z,3208.00
2023-03-29T01:33:07.914Z,3122.00
2023-03-29T01:34:07.817Z,3201.00
2023-03-29T01:35:07.840Z,3226.00
2023-03-29T01:36:07.896Z,3090.00
2023-03-29T01:37:07.841Z,3149.00
2023-03-29T01:38:07.830Z,3136.00
2023-03-29T01:39:07.817Z,3165.00
2023-03-29T01:40:07.833Z,3133.00
2023-03-29T01:41:07.814Z,3140.00
2023-03-29T01:42:07.795Z,3205.00
2023-03-29T01:43:07.814Z,3130.00
2023-03-29T01:44:07.793Z,3095.00
2023-03-29T01:45:07.809Z,3140.00
2023-03-29T01:46:07.811Z,3130.00
2023-03-29T01:47:07.776Z,3146.00
2023-03-29T01:48:07.774Z,3156.00
2023-03-29T01:49:07.763Z,3093.00
2023-03-29T01:50:07.778Z,3111.00
2023-03-29T01:51:07.760Z,3129.00
2023-03-29T01:52:07.760Z,3084.00
2023-03-29T01:53:07.774Z,3121.00
2023-03-29T01:54:07.767Z,3089.00
2023-03-29T01:55:07.763Z,3086.00
2023-03-29T01:56:07.756Z,3107.00
2023-03-29T01:57:07.783Z,3092.00
2023-03-29T01:58:07.724Z,3108.00
2023-03-29T01:59:07.726Z,3098.00
2023-03-29T02:00:07.721Z,3131.00
2023-03-29T02:01:07.798Z,3097.00
2023-03-29T02:02:07.794Z,3160.00
2023-03-29T02:03:07.847Z,3131.00
2023-03-29T02:04:07.710Z,3158.00
2023-03-29T02:05:07.721Z,3159.00
2023-03-29T02:06:07.711Z,3102.00
2023-03-29T02:07:07.697Z,3119.00
2023-03-29T02:08:07.702Z,3108.00
2023-03-29T02:09:07.734Z,3124.00
2023-03-29T02:10:07.711Z,3118.00
2023-03-29T02:11:07.744Z,3103.00
2023-03-29T02:12:07.719Z,3071.00
2023-03-29T02:13:07.721Z,3039.00
2023-03-29T02:14:07.720Z,3103.00
2023-03-29T02:15:07.712Z,3059.00
2023-03-29T02:16:07.734Z,3045.00
2023-03-29T02:17:07.709Z,3087.00
2023-03-29T02:18:07.780Z,3100.00
2023-03-29T02:19:07.819Z,3072.00
2023-03-29T02:20:07.708Z,3071.00
2023-03-29T02:21:07.693Z,3073.00
2023-03-29T02:22:07.683Z,3065.00
2023-03-29T02:23:07.682Z,3058.00
2023-03-29T02:24:07.692Z,3069.00
2023-03-29T02:25:07.681Z,3097.00
2023-03-29T02:26:07.675Z,3097.00
2023-03-29T02:27:07.686Z,3101.00
2023-03-29T02:28:07.648Z,3077.00
2023-03-29T02:29:07.666Z,3073.00
2023-03-29T02:30:07.681Z,3081.00
2023-03-29T02:31:07.682Z,3077.00
2023-03-29T02:32:07.657Z,3079.00
2023-03-29T02:33:07.689Z,3065.00
2023-03-29T02:34:07.704Z,3071.00
2023-03-29T02:35:07.748Z,3060.00
2023-03-29T02:36:07.787Z,3063.00
2023-03-29T02:37:07.706Z,3067.00
2023-03-29T02:38:07.745Z,3068.00
2023-03-29T02:39:07.713Z,3041.00
2023-03-29T02:40:07.712Z,3015.00
2023-03-29T02:41:07.702Z,3046.00
2023-03-29T02:42:07.707Z,3047.00
2023-03-29T02:43:07.752Z,3024.00
2023-03-29T02:44:07.740Z,3027.00
2023-03-29T02:45:07.748Z,3012.00
2023-03-29T02:46:07.806Z,3044.00
2023-03-29T02:47:07.748Z,3026.00
2023-03-29T02:48:07.828Z,3031.00
2023-03-29T02:49:07.753Z,3039.00
2023-03-29T02:50:07.741Z,3050.00
2023-03-29T02:51:07.754Z,3022.00
2023-03-29T02:52:07.851Z,3024.00
2023-03-29T02:53:07.749Z,3019.00
2023-03-29T02:54:07.732Z,3005.00
2023-03-29T02:55:07.727Z,3023.00
2023-03-29T02:56:07.722Z,3010.00
2023-03-29T02:57:07.775Z,3022.00
2023-03-29T02:58:07.734Z,3007.00
2023-03-29T02:59:07.718Z,3004.00
2023-03-29T03:00:07.722Z,3006.00
2023-03-29T03:01:07.758Z,2997.00
2023-03-29T03:02:07.785Z,2994.00
2023-03-29T03:03:07.953Z,3006.00
2023-03-29T03:04:07.769Z,3001.00
2023-03-29T03:05:07.744Z,2996.00
2023-03-29T03:06:07.721Z,2986.00
2023-03-29T03:07:07.716Z,2978.00
2023-03-29T03:08:07.756Z,2975.00
2023-03-29T03:09:07.797Z,2979.00
2023-03-29T03:10:07.779Z,2975.00
2023-03-29T03:11:07.796Z,2990.00
2023-03-29T03:12:07.840Z,2967.00
2023-03-29T03:13:07.834Z,2976.00
2023-03-29T03:14:07.839Z,2977.00
2023-03-29T03:15:07.843Z,2967.00
2023-03-29T03:16:07.939Z,2973.00
2023-03-29T03:17:07.855Z,2970.00
2023-03-29T03:18:07.946Z,2960.00
2023-03-29T03:19:07.913Z,2958.00
2023-03-29T03:20:07.934Z,2954.00
2023-03-29T03:21:07.961Z,2965.00
2023-03-29T03:22:08.037Z,2967.00
2023-03-29T03:23:08.012Z,2953.00
2023-03-29T03:24:08.019Z,2963.00
2023-03-29T03:25:08.054Z,2953.00
2023-03-29T03:26:08.088Z,2944.00
2023-03-29T03:27:08.117Z,2952.00
2023-03-29T03:28:08.145Z,2934.00
2023-03-29T03:29:08.211Z,2947.00
2023-03-29T03:30:08.224Z,2927.00
2023-03-29T03:31:08.320Z,2926.00
2023-03-29T03:32:08.420Z,2928.00
2023-03-29T03:33:08.349Z,2919.00
2023-03-29T03:34:08.363Z,2920.00
2023-03-29T03:35:08.393Z,2912.00
2023-03-29T03:36:08.468Z,2905.00
2023-03-29T03:37:08.477Z,2904.00
2023-03-29T03:38:08.486Z,2912.00
2023-03-29T03:39:08.526Z,2914.00
2023-03-29T03:40:08.542Z,2902.00
2023-03-29T03:41:08.550Z,2904.00
2023-03-29T03:42:08.668Z,2899.00
2023-03-29T03:43:08.631Z,2911.00
2023-03-29T03:44:08.660Z,2904.00
2023-03-29T03:45:08.662Z,2882.00
2023-03-29T03:46:08.764Z,2896.00
2023-03-29T03:47:08.733Z,2895.00
2023-03-29T03:48:08.801Z,2871.00
2023-03-29T03:49:08.797Z,2887.00
2023-03-29T03:50:08.827Z,2879.00
2023-03-29T03:51:08.861Z,2873.00
2023-03-29T03:52:08.866Z,2867.00
2023-03-29T03:53:08.880Z,2873.00
2023-03-29T03:54:08.899Z,2862.00
2023-03-29T03:55:08.941Z,2846.00
2023-03-29T03:56:09.164Z,2858.00
2023-03-29T03:57:09.123Z,2863.00
2023-03-29T03:58:09.025Z,2859.00
2023-03-29T03:59:09.074Z,2843.00
2023-03-29T04:00:09.098Z,2855.00
2023-03-29T04:01:09.114Z,2848.00
2023-03-29T04:02:09.159Z,2859.00
2023-03-29T04:03:09.334Z,2850.00
2023-03-29T04:04:09.234Z,2852.00
2023-03-29T04:05:09.198Z,2842.00
2023-03-29T04:06:09.247Z,2852.00
2023-03-29T04:07:09.293Z,2803.00
2023-03-29T04:08:09.329Z,2814.00
2023-03-29T04:09:09.380Z,2835.00
2023-03-29T04:10:09.399Z,2812.00
2023-03-29T04:11:09.440Z,2826.00
2023-03-29T04:12:09.493Z,2815.00
2023-03-29T04:13:09.525Z,2832.00
2023-03-29T04:14:09.595Z,2815.00
2023-03-29T04:15:09.630Z,2810.00
2023-03-29T04:16:09.728Z,2814.00
2023-03-29T04:17:09.708Z,2811.00
2023-03-29T04:18:09.823Z,2809.00
2023-03-29T04:19:09.788Z,2797.00
2023-03-29T04:20:09.823Z,2812.00
2023-03-29T04:21:09.854Z,2808.00
2023-03-29T04:22:09.909Z,2797.00
2023-03-29T04:23:09.940Z,2805.00
2023-03-29T04:24:10.017Z,2812.00
2023-03-29T04:25:10.105Z,2790.00
2023-03-29T04:26:10.118Z,2788.00
2023-03-29T04:27:10.117Z,2774.00
2023-03-29T04:28:10.176Z,2796.00
2023-03-29T04:29:10.200Z,2758.00
2023-03-29T04:30:10.249Z,2772.00
2023-03-29T04:31:10.352Z,2767.00
2023-03-29T04:32:10.297Z,2769.00
2023-03-29T04:33:10.447Z,2758.00
2023-03-29T04:34:10.344Z,2770.00
2023-03-29T04:35:10.410Z,2768.00
2023-03-29T04:36:10.470Z,2768.00
2023-03-29T04:37:10.578Z,2760.00
2023-03-29T04:38:10.504Z,2735.00
2023-03-29T04:39:10.546Z,2741.00
2023-03-29T04:40:10.580Z,2709.00
2023-03-29T04:41:10.614Z,2729.00
2023-03-29T04:42:10.672Z,2746.00
2023-03-29T04:43:10.707Z,2750.00
2023-03-29T04:44:10.725Z,2742.00
2023-03-29T04:45:10.872Z,2747.00
2023-03-29T04:46:10.885Z,2740.00
2023-03-29T04:47:10.848Z,2733.00
2023-03-29T04:48:10.937Z,2722.00
2023-03-29T04:49:10.952Z,2720.00
2023-03-29T04:50:11.002Z,2728.00
2023-03-29T04:51:11.060Z,2730.00
2023-03-29T04:52:11.095Z,2714.00
2023-03-29T04:53:11.167Z,2715.00
2023-03-29T04:54:11.240Z,2709.00
2023-03-29T04:55:11.269Z,2519.00
2023-03-29T04:56:11.314Z,2471.00
2023-03-29T04:57:11.428Z,2589.00
2023-03-29T04:58:11.434Z,2574.00
2023-03-29T04:59:11.509Z,2610.00
2023-03-29T05:00:11.547Z,2628.00
2023-03-29T05:01:11.609Z,2604.00
2023-03-29T05:02:11.670Z,2607.00
2023-03-29T05:03:11.737Z,2455.00
2023-03-29T05:04:12.853Z,2309.00
2023-03-29T05:05:11.663Z,2467.00
2023-03-29T05:06:11.681Z,2547.00
2023-03-29T05:07:11.709Z,2577.00
2023-03-29T05:08:11.746Z,2588.00
2023-03-29T05:09:11.825Z,2613.00
2023-03-29T05:10:11.878Z,2627.00
2023-03-29T05:11:11.923Z,2636.00
2023-03-29T05:12:12.011Z,2642.00
2023-03-29T05:13:12.072Z,2655.00
2023-03-29T05:14:12.129Z,2653.00
2023-03-29T05:15:12.175Z,2657.00
2023-03-29T05:16:12.262Z,2652.00
2023-03-29T05:17:12.306Z,2647.00
2023-03-29T05:18:12.390Z,2642.00
2023-03-29T05:19:12.402Z,2555.00
2023-03-29T05:20:12.477Z,2532.00
2023-03-29T05:21:12.498Z,2733.00
2023-03-29T05:22:12.568Z,3349.00
2023-03-29T05:23:12.589Z,4262.00
2023-03-29T05:24:12.654Z,4618.00
2023-03-29T05:25:12.718Z,4487.00
2023-03-29T05:26:12.767Z,4150.00
2023-03-29T05:27:12.837Z,3977.00
2023-03-29T05:28:12.855Z,3072.00
2023-03-29T05:29:12.928Z,3008.00
2023-03-29T05:30:13.338Z,2790.00
2023-03-29T05:31:14.202Z,2668.00
2023-03-29T05:32:13.066Z,2670.00
2023-03-29T05:33:13.086Z,2610.00
2023-03-29T05:34:13.036Z,2515.00
2023-03-29T05:35:13.016Z,2484.00
2023-03-29T05:36:13.037Z,2443.00
2023-03-29T05:37:13.013Z,2359.00
2023-03-29T05:38:12.991Z,2389.00
2023-03-29T05:39:13.000Z,2349.00
2023-03-29T05:40:13.343Z,2361.00
2023-03-29T05:41:12.973Z,2388.00
2023-03-29T05:42:12.987Z,2458.00
2023-03-29T05:43:12.976Z,2529.00
2023-03-29T05:44:12.969Z,2642.00
2023-03-29T05:45:12.958Z,2598.00
2023-03-29T05:46:12.975Z,2675.00
2023-03-29T05:47:12.945Z,2783.00
2023-03-29T05:48:12.944Z,5676.00
2023-03-29T05:49:12.932Z,6325.00
2023-03-29T05:50:12.920Z,7180.00
2023-03-29T05:51:12.939Z,6631.00
2023-03-29T05:52:12.905Z,6950.00
2023-03-29T05:53:12.913Z,5996.00
2023-03-29T05:54:12.906Z,5008.00
2023-03-29T05:55:12.887Z,4523.00
2023-03-29T05:56:12.901Z,3806.00
2023-03-29T05:57:12.894Z,3932.00
2023-03-29T05:58:12.866Z,4156.00
2023-03-29T05:59:12.858Z,4279.00
2023-03-29T06:00:12.853Z,3520.00
2023-03-29T06:01:12.872Z,3350.00
2023-03-29T06:02:12.873Z,3483.00
2023-03-29T06:03:20.274Z,3435.00
2023-03-29T06:04:13.926Z,3447.00
2023-03-29T06:05:12.835Z,3514.00
2023-03-29T06:06:12.834Z,3520.00
2023-03-29T06:07:12.833Z,3787.00
2023-03-29T06:08:12.810Z,4078.00
2023-03-29T06:09:12.808Z,3629.00
2023-03-29T06:10:12.789Z,3792.00
2023-03-29T06:11:12.794Z,3682.00
2023-03-29T06:12:12.803Z,4322.00
2023-03-29T06:13:12.791Z,3554.00
2023-03-29T06:14:12.769Z,5850.00
2023-03-29T06:15:12.773Z,5358.00
2023-03-29T06:16:12.760Z,4765.00
2023-03-29T06:17:12.779Z,4423.00
2023-03-29T06:18:12.840Z,4583.00
2023-03-29T06:19:12.740Z,4013.00
2023-03-29T06:20:12.753Z,3678.00
2023-03-29T06:21:12.773Z,3992.00
2023-03-29T06:22:14.766Z,3971.00
2023-03-29T06:23:12.767Z,3775.00
2023-03-29T06:24:12.771Z,3735.00
2023-03-29T06:25:12.779Z,3512.00
2023-03-29T06:26:12.796Z,3723.00
2023-03-29T06:27:12.781Z,3665.00
2023-03-29T06:28:12.781Z,3549.00
2023-03-29T06:29:12.769Z,3553.00
2023-03-29T06:30:12.788Z,3403.00
2023-03-29T06:31:12.826Z,3125.00
2023-03-29T06:32:12.869Z,3315.00
2023-03-29T06:33:12.779Z,2677.00
2023-03-29T06:34:12.807Z,2790.00
2023-03-29T06:35:12.839Z,2865.00
2023-03-29T06:36:12.885Z,3250.00
2023-03-29T06:37:12.890Z,3381.00
2023-03-29T06:38:12.947Z,3346.00
2023-03-29T06:39:12.972Z,3517.00
2023-03-29T06:40:13.003Z,3497.00
2023-03-29T06:41:13.039Z,3479.00
2023-03-29T06:42:21.022Z,4065.00
2023-03-29T06:43:14.048Z,3824.00
2023-03-29T06:44:13.026Z,3582.00
2023-03-29T06:45:13.029Z,3571.00
2023-03-29T06:46:13.400Z,3687.00
2023-03-29T06:47:13.344Z,3695.00
2023-03-29T06:48:13.128Z,3648.00
2023-03-29T06:49:13.170Z,3856.00
2023-03-29T06:50:13.205Z,4433.00
2023-03-29T06:51:13.260Z,4067.00
2023-03-29T06:52:13.348Z,3820.00
2023-03-29T06:53:13.349Z,3823.00
2023-03-29T06:54:13.378Z,3706.00
2023-03-29T06:55:13.398Z,3673.00
2023-03-29T06:56:13.443Z,3568.00
2023-03-29T06:57:13.896Z,3524.00
2023-03-29T06:58:13.466Z,3457.00
2023-03-29T06:59:13.543Z,3428.00
2023-03-29T07:00:13.513Z,3400.00
2023-03-29T07:01:13.505Z,3399.00
2023-03-29T07:02:13.596Z,3327.00
2023-03-29T07:03:13.623Z,3293.00
2023-03-29T07:04:13.565Z,3266.00
2023-03-29T07:05:13.533Z,4433.00
2023-03-29T07:06:13.558Z,4214.00
2023-03-29T07:07:13.872Z,3370.00
2023-03-29T07:08:13.906Z,2748.00
2023-03-29T07:09:13.669Z,3208.00
2023-03-29T07:10:13.725Z,3179.00
2023-03-29T07:11:13.763Z,3366.00
2023-03-29T07:12:14.048Z,3298.00
2023-03-29T07:13:13.898Z,3390.00
2023-03-29T07:14:13.960Z,3832.00
2023-03-29T07:15:14.014Z,3476.00
2023-03-29T07:16:14.137Z,3379.00
2023-03-29T07:17:14.111Z,3293.00
2023-03-29T07:18:14.154Z,3820.00
2023-03-29T07:19:14.189Z,4016.00
2023-03-29T07:20:14.234Z,3704.00
2023-03-29T07:21:14.245Z,4239.00
2023-03-29T07:22:14.287Z,4472.00
2023-03-29T07:23:14.318Z,4325.00
2023-03-29T07:24:14.365Z,4386.00
2023-03-29T07:25:14.405Z,4563.00
2023-03-29T07:26:14.439Z,4415.00
2023-03-29T07:27:15.886Z,4351.00
2023-03-29T07:28:14.957Z,3873.00
2023-03-29T07:29:14.434Z,2948.00
2023-03-29T07:30:14.415Z,2407.00
2023-03-29T07:31:14.401Z,2031.00
2023-03-29T07:32:14.433Z,1979.00
2023-03-29T07:33:14.994Z,1768.00
2023-03-29T07:34:14.454Z,2131.00
2023-03-29T07:35:14.613Z,2192.00
2023-03-29T07:36:14.548Z,2265.00
2023-03-29T07:37:14.878Z,2308.00
2023-03-29T07:38:14.534Z,2347.00
2023-03-29T07:39:14.539Z,2430.00
2023-03-29T07:40:14.537Z,2791.00
2023-03-29T07:41:14.605Z,3297.00
2023-03-29T07:42:14.663Z,4061.00
2023-03-29T07:43:14.704Z,8241.00
2023-03-29T07:44:14.715Z,8171.00
2023-03-29T07:45:14.763Z,4751.00
2023-03-29T07:46:14.782Z,3949.00
2023-03-29T07:47:14.736Z,3322.00
2023-03-29T07:48:14.796Z,3187.00
2023-03-29T07:49:14.890Z,3294.00
2023-03-29T07:50:14.863Z,4271.00
2023-03-29T07:51:14.913Z,6831.00
2023-03-29T07:52:14.978Z,5472.00
2023-03-29T07:53:15.018Z,4832.00
2023-03-29T07:54:15.062Z,5529.00
2023-03-29T07:55:15.366Z,5770.00
2023-03-29T07:56:15.128Z,5400.00
2023-03-29T07:57:15.173Z,4485.00
2023-03-29T07:58:15.173Z,5523.00
2023-03-29T07:59:15.190Z,4881.00
2023-03-29T08:00:15.443Z,5085.00
2023-03-29T08:01:17.175Z,4341.00
2023-03-29T08:02:15.204Z,4216.00
2023-03-29T08:03:15.360Z,4097.00
2023-03-29T08:04:15.235Z,4028.00
2023-03-29T08:05:18.990Z,4104.00
2023-03-29T08:06:16.178Z,4086.00
2023-03-29T08:07:17.637Z,3838.00
2023-03-29T08:08:15.156Z,3909.00
2023-03-29T08:09:15.169Z,3991.00
2023-03-29T08:10:15.146Z,4125.00
2023-03-29T08:11:15.139Z,4570.00
2023-03-29T08:12:15.163Z,4761.00
2023-03-29T08:13:15.135Z,4122.00
2023-03-29T08:14:15.130Z,3917.00
2023-03-29T08:15:15.392Z,2597.00
2023-03-29T08:16:15.183Z,2283.00
2023-03-29T08:17:15.095Z,1929.00
2023-03-29T08:18:15.141Z,1864.00
2023-03-29T08:19:15.083Z,1865.00
2023-03-29T08:20:15.408Z,1939.00
2023-03-29T08:21:15.087Z,2006.00
2023-03-29T08:22:15.089Z,1697.00
2023-03-29T08:23:15.057Z,1874.00
2023-03-29T08:24:15.083Z,2196.00
2023-03-29T08:25:15.426Z,2349.00
2023-03-29T08:26:15.057Z,2415.00
2023-03-29T08:27:15.035Z,2539.00
2023-03-29T08:28:15.406Z,2751.00
2023-03-29T08:29:15.029Z,2842.00
2023-03-29T08:30:15.039Z,2811.00
2023-03-29T08:31:15.046Z,2815.00
2023-03-29T08:32:15.012Z,2827.00
2023-03-29T08:33:15.110Z,2820.00
2023-03-29T08:34:15.004Z,2887.00
2023-03-29T08:35:15.001Z,2962.00
2023-03-29T08:36:15.061Z,3950.00
2023-03-29T08:37:15.009Z,4150.00
2023-03-29T08:38:15.013Z,4047.00
2023-03-29T08:39:15.836Z,4110.00
2023-03-29T08:40:14.953Z,4159.00
2023-03-29T08:41:14.958Z,4160.00
2023-03-29T08:42:14.937Z,4128.00
2023-03-29T08:43:15.394Z,4088.00
2023-03-29T08:44:14.929Z,4019.00
2023-03-29T08:45:14.936Z,3719.00
2023-03-29T08:46:15.061Z,3524.00
2023-03-29T08:47:15.066Z,3301.00
2023-03-29T08:48:15.115Z,3222.00
2023-03-29T08:49:15.185Z,3354.00
2023-03-29T08:50:15.215Z,3148.00
2023-03-29T08:51:15.265Z,3277.00
2023-03-29T08:52:15.327Z,3290.00
2023-03-29T08:53:15.422Z,3360.00
2023-03-29T08:54:15.458Z,3405.00
2023-03-29T08:55:15.543Z,3511.00
2023-03-29T08:56:15.592Z,3516.00
2023-03-29T08:57:15.686Z,3464.00
2023-03-29T08:58:15.731Z,3433.00
2023-03-29T08:59:15.760Z,3404.00
2023-03-29T09:00:15.834Z,3388.00
2023-03-29T09:01:15.979Z,3390.00
2023-03-29T09:02:15.992Z,3355.00
2023-03-29T09:03:16.128Z,3314.00
2023-03-29T09:04:16.061Z,3345.00
2023-03-29T09:05:16.082Z,3315.00
2023-03-29T09:06:16.130Z,3316.00
2023-03-29T09:07:16.139Z,3259.00
2023-03-29T09:08:16.173Z,3267.00
2023-03-29T09:09:16.223Z,3251.00
2023-03-29T09:10:16.248Z,3246.00
2023-03-29T09:11:16.325Z,3257.00
2023-03-29T09:12:16.336Z,3216.00
2023-03-29T09:13:16.486Z,3213.00
2023-03-29T09:14:16.453Z,3210.00
2023-03-29T09:15:16.524Z,3200.00
2023-03-29T09:16:16.620Z,3203.00
2023-03-29T09:17:16.648Z,3205.00
2023-03-29T09:18:17.014Z,3212.00
2023-03-29T09:19:16.740Z,3228.00
2023-03-29T09:20:16.845Z,3222.00
2023-03-29T09:21:16.879Z,3227.00
2023-03-29T09:22:17.021Z,3250.00
2023-03-29T09:23:17.413Z,3592.00
2023-03-29T09:24:17.085Z,3665.00
2023-03-29T09:25:17.111Z,3348.00
2023-03-29T09:26:17.226Z,3464.00
2023-03-29T09:27:17.262Z,3280.00
2023-03-29T09:28:17.410Z,3195.00
2023-03-29T09:29:17.368Z,3176.00
2023-03-29T09:30:17.408Z,3136.00
2023-03-29T09:31:17.543Z,3147.00
2023-03-29T09:32:17.516Z,3140.00
2023-03-29T09:33:17.917Z,3514.00
2023-03-29T09:34:17.605Z,3393.00
2023-03-29T09:35:17.667Z,3318.00
2023-03-29T09:36:17.708Z,3321.00
2023-03-29T09:37:17.710Z,3299.00
2023-03-29T09:38:17.756Z,3292.00
2023-03-29T09:39:17.778Z,3287.00
2023-03-29T09:40:17.847Z,3251.00
2023-03-29T09:41:17.775Z,3214.00
2023-03-29T09:42:17.806Z,3150.00
2023-03-29T09:43:17.778Z,3168.00
2023-03-29T09:44:30.301Z,3119.00
2023-03-29T09:45:18.786Z,3120.00
2023-03-29T09:46:17.870Z,3118.00
2023-03-29T09:47:17.765Z,3084.00
2023-03-29T09:48:17.933Z,3069.00
2023-03-29T09:49:17.783Z,3051.00
2023-03-29T09:50:30.271Z,3045.00
2023-03-29T09:51:18.726Z,3034.00
2023-03-29T09:52:17.730Z,2995.00
2023-03-29T09:53:17.742Z,2901.00
2023-03-29T09:54:17.726Z,2904.00
2023-03-29T09:55:17.825Z,3756.00
2023-03-29T09:56:17.706Z,3706.00
2023-03-29T09:57:17.721Z,3636.00
2023-03-29T09:58:17.709Z,3742.00
2023-03-29T09:59:17.689Z,3628.00
2023-03-29T10:00:17.682Z,3308.00
2023-03-29T10:01:17.766Z,3163.00
2023-03-29T10:02:17.678Z,3058.00
2023-03-29T10:03:17.936Z,3078.00
2023-03-29T10:04:18.023Z,3047.00
2023-03-29T10:05:17.669Z,3025.00
2023-03-29T10:06:17.682Z,2960.00
2023-03-29T10:07:17.684Z,2934.00
2023-03-29T10:08:19.462Z,2908.00
2023-03-29T10:09:17.948Z,2836.00
2023-03-29T10:10:17.757Z,2799.00
2023-03-29T10:11:17.762Z,2805.00
2023-03-29T10:12:17.809Z,2786.00
2023-03-29T10:13:17.849Z,2765.00
2023-03-29T10:14:17.859Z,2784.00
2023-03-29T10:15:29.334Z,2769.00
2023-03-29T10:16:18.942Z,2744.00
2023-03-29T10:18:36.317Z,500.00
2023-03-29T10:19:36.517Z,500.00
2023-03-29T10:20:36.298Z,500.00
2023-03-29T10:21:36.296Z,500.00
2023-03-29T10:22:36.356Z,500.00
2023-03-29T10:23:36.412Z,547.00
2023-03-29T10:24:36.512Z,496.00
2023-03-29T10:25:36.490Z,563.00
2023-03-29T10:26:36.491Z,559.00
2023-03-29T10:27:36.537Z,559.00
2023-03-29T10:28:36.571Z,554.00
2023-03-29T10:29:36.621Z,535.00
2023-03-29T10:30:36.668Z,537.00
2023-03-29T10:31:36.784Z,533.00
2023-03-29T10:32:36.827Z,545.00
2023-03-29T10:33:36.827Z,545.00
2023-03-29T10:34:36.877Z,530.00
2023-03-29T10:35:36.962Z,524.00
2023-03-29T10:36:36.971Z,516.00
2023-03-29T10:37:37.011Z,518.00
2023-03-29T10:38:37.047Z,515.00
2023-03-29T10:39:37.064Z,507.00
2023-03-29T10:40:37.124Z,507.00
2023-03-29T10:41:37.147Z,511.00
2023-03-29T10:42:37.155Z,504.00
2023-03-29T10:43:37.213Z,507.00
2023-03-29T10:44:37.208Z,502.00
2023-03-29T10:45:37.221Z,501.00
2023-03-29T10:46:37.347Z,502.00
2023-03-29T10:47:37.288Z,502.00
2023-03-29T10:48:37.300Z,501.00
2023-03-29T10:49:37.331Z,504.00
2023-03-29T10:50:37.337Z,507.00
2023-03-29T10:51:37.371Z,509.00
2023-03-29T10:52:37.412Z,523.00
2023-03-29T10:53:37.419Z,503.00
2023-03-29T10:54:37.440Z,520.00
2023-03-29T10:55:37.478Z,529.00
2023-03-29T10:56:37.515Z,540.00
2023-03-29T10:57:37.764Z,524.00
2023-03-29T10:58:37.551Z,535.00
2023-03-29T10:59:38.046Z,540.00
2023-03-29T11:00:38.015Z,530.00
2023-03-29T11:01:37.762Z,536.00
2023-03-29T11:02:37.781Z,543.00
2023-03-29T11:03:37.882Z,546.00
2023-03-29T11:04:37.689Z,536.00
2023-03-29T11:05:37.719Z,513.00
2023-03-29T11:06:37.745Z,513.00
2023-03-29T11:07:37.764Z,509.00
2023-03-29T11:08:37.785Z,515.00
2023-03-29T11:09:37.799Z,535.00
2023-03-29T11:10:37.830Z,535.00
2023-03-29T11:11:37.870Z,519.00
2023-03-29T11:12:37.893Z,536.00
2023-03-29T11:13:37.916Z,498.00
2023-03-29T11:14:37.933Z,533.00
2023-03-29T11:15:38.051Z,555.00
2023-03-29T11:16:37.981Z,577.00
2023-03-29T11:17:38.070Z,572.00
2023-03-29T11:18:38.040Z,572.00
2023-03-29T11:19:38.044Z,599.00
2023-03-29T11:20:38.091Z,648.00
2023-03-29T11:21:38.130Z,727.00
2023-03-29T11:22:38.173Z,800.00
2023-03-29T11:23:38.205Z,839.00
2023-03-29T11:24:38.240Z,933.00
2023-03-29T11:25:38.277Z,958.00
2023-03-29T11:26:38.298Z,1011.00
2023-03-29T11:27:38.343Z,1093.00
2023-03-29T11:28:38.406Z,1136.00
2023-03-29T11:29:38.456Z,1265.00
2023-03-29T11:30:38.501Z,1321.00
2023-03-29T11:31:39.249Z,1389.00
2023-03-29T11:32:38.690Z,1422.00
2023-03-29T11:33:38.679Z,1508.00
2023-03-29T11:34:38.718Z,1515.00
2023-03-29T11:35:38.828Z,1588.00
2023-03-29T11:36:38.856Z,1631.00
2023-03-29T11:37:38.876Z,1603.00
2023-03-29T11:38:38.921Z,1641.00
2023-03-29T11:39:38.989Z,1654.00
2023-03-29T11:40:39.045Z,1648.00
2023-03-29T11:41:39.103Z,1684.00
2023-03-29T11:42:39.139Z,1721.00
2023-03-29T11:43:39.205Z,1732.00
2023-03-29T11:44:39.257Z,1734.00
2023-03-29T11:45:39.323Z,1707.00
2023-03-29T11:46:39.401Z,1687.00
2023-03-29T11:47:39.489Z,1697.00
2023-03-29T11:48:39.494Z,1693.00
2023-03-29T11:49:39.583Z,1688.00
2023-03-29T11:50:39.647Z,1679.00
2023-03-29T11:51:39.705Z,1667.00
2023-03-29T11:52:39.808Z,1651.00
2023-03-29T11:53:39.812Z,1693.00
2023-03-29T11:54:39.878Z,1644.00
2023-03-29T11:55:40.066Z,1647.00
2023-03-29T11:56:40.003Z,1653.00
2023-03-29T11:57:40.064Z,1619.00
2023-03-29T11:58:40.058Z,1638.00
2023-03-29T11:59:40.121Z,1615.00
2023-03-29T12:00:40.150Z,1592.00
2023-03-29T12:01:40.236Z,1601.00
2023-03-29T12:02:40.708Z,1607.00
2023-03-29T12:03:40.416Z,1572.00
2023-03-29T12:04:40.321Z,1568.00
2023-03-29T12:05:40.357Z,1571.00
2023-03-29T12:06:40.392Z,1551.00
2023-03-29T12:07:40.449Z,1567.00
2023-03-29T12:08:40.464Z,1552.00